Pocola, Oklahoma
Current Conditions -  °F | °C
As of 9:44 PM on Friday 19 Dec 2014 (Local Time) from KFSM Reporting Station
Haze Haze  
Wind Chill: 40°   Ceiling: 2300
Heat Index: 43°   Visibility: 6mi
Dew Point: 39°   Wind: 5mph
Humidity: 86%   Direction: 80°E
Pressure: 30.22"   Gusts: NA
Location:  35.23°N, 94.48°W
Report Text: KFSM 200344Z 08004KT 6SM BR SCT009 OVC023 06/04 A3022 RMK AO2 T00610039
Loading
Personal Weather Stations






























Interactive Weather Map New forecast layout! Learn more

10-Day Weather Forecast

Advertisements
Track Severe Weather on mobile